Terminal Aerodrome Forecast
Issued by NWS Atlanta, GA

Home | Current Version | Previous Version | Text Only | Print | Product List | Glossary On
Versions: 1 2 3 4 5 6 7 8 9 10 11 12 13 14 15 16 17 18 19
000
FTUS42 KFFC 261132
TAFCSG
TAF
KCSG 261132Z 2612/2712 30010KT P6SM SCT010 BKN025
      TEMPO 2612/2615 BKN010
     FM261600 30012G20KT P6SM BKN040
     FM261900 30014G24KT P6SM SCT050
     FM270000 31010KT P6SM SCT250
     FM270900 28006KT P6SM SKC=

USA.gov is the U.S. government's official web portal to all federal, state and local government web resources and services.